Time;durP1;ratioP1;P1;durP2;ratioP2;P2;SDS_P1;SDS_P2;PMS_P1;PMS_P2;Temp;Humidity;BMP_temperature;BMP_pressure;BME280_temperature;BME280_humidity;BME280_pressure;Samples;Min_cycle;Max_cycle;Signal;HPM_P1;HPM_P2
2022/04/16 00:00:22;;;;;;;6.60;5.90;;;12.00;99.90;;;;;;5023101;28;20147;-60
2022/04/16 00:02:48;;;;;;;6.38;5.78;;;12.00;99.90;;;;;;5020830;28;20080;-60
2022/04/16 00:05:15;;;;;;;6.90;6.20;;;12.00;99.90;;;;;;5021404;28;20452;-60
2022/04/16 00:07:42;;;;;;;8.07;6.70;;;11.90;99.90;;;;;;5021932;28;20049;-61
2022/04/16 00:10:09;;;;;;;7.43;6.28;;;11.90;99.90;;;;;;5022980;28;20087;-60
2022/04/16 00:12:36;;;;;;;7.07;6.18;;;11.80;99.90;;;;;;5022653;28;20568;-61
2022/04/16 00:15:05;;;;;;;6.28;5.65;;;11.80;99.90;;;;;;5015353;28;20418;-60
2022/04/16 00:17:31;;;;;;;7.00;6.30;;;11.70;99.90;;;;;;5020747;28;20164;-60
2022/04/16 00:20:02;;;;;;;6.55;5.78;;;11.70;99.90;;;;;;5019221;28;20450;-60
2022/04/16 00:22:29;;;;;;;6.90;5.30;;;11.60;99.90;;;;;;5014067;28;20149;-60
2022/04/16 00:24:55;;;;;;;6.45;5.28;;;11.50;99.90;;;;;;5009941;28;20096;-60
2022/04/16 00:27:24;;;;;;;5.47;4.57;;;11.50;99.90;;;;;;5020793;28;20042;-60
2022/04/16 00:29:50;;;;;;;6.82;5.80;;;11.50;99.90;;;;;;5021017;28;20045;-59
2022/04/16 00:32:19;;;;;;;6.82;5.65;;;11.50;99.90;;;;;;5018868;28;20076;-60
2022/04/16 00:34:46;;;;;;;6.15;5.55;;;11.40;99.90;;;;;;5016070;28;20434;-60
2022/04/16 00:37:13;;;;;;;6.15;5.30;;;11.30;99.90;;;;;;5001728;28;20112;-60
2022/04/16 00:39:40;;;;;;;6.40;5.13;;;11.30;99.90;;;;;;5002406;28;20462;-60
2022/04/16 00:42:07;;;;;;;5.55;5.00;;;11.20;99.90;;;;;;5006666;28;20077;-60
2022/04/16 00:44:34;;;;;;;5.70;5.10;;;11.20;99.90;;;;;;5021908;28;20103;-62
2022/04/16 00:47:01;;;;;;;7.88;5.43;;;11.10;99.90;;;;;;5015140;28;20525;-60
2022/04/16 00:49:28;;;;;;;6.85;5.13;;;11.10;99.90;;;;;;5006919;28;20128;-60
2022/04/16 00:51:54;;;;;;;7.57;4.97;;;11.10;99.90;;;;;;5004016;28;20136;-60
2022/04/16 00:54:21;;;;;;;6.55;5.05;;;11.00;99.90;;;;;;5017859;28;20140;-59
2022/04/16 00:56:48;;;;;;;5.50;4.60;;;11.00;99.90;;;;;;5019978;28;20500;-60
2022/04/16 00:59:14;;;;;;;5.53;4.32;;;10.90;99.90;;;;;;5015757;28;20627;-60
2022/04/16 01:01:41;;;;;;;5.47;4.72;;;10.90;99.90;;;;;;5017295;28;20444;-60
2022/04/16 01:04:09;;;;;;;6.53;4.95;;;10.90;99.90;;;;;;5018859;28;20053;-60
2022/04/16 01:06:37;;;;;;;5.60;4.32;;;10.90;99.90;;;;;;5020275;28;20462;-60
2022/04/16 01:09:04;;;;;;;6.13;5.32;;;10.80;99.90;;;;;;5011772;28;20491;-63
2022/04/16 01:11:32;;;;;;;5.68;5.07;;;10.80;99.90;;;;;;5000403;28;20085;-60
2022/04/16 01:14:02;;;;;;;5.50;4.72;;;10.80;99.90;;;;;;5017787;28;20111;-59
2022/04/16 01:16:29;;;;;;;5.68;4.95;;;10.80;99.90;;;;;;5019522;28;20072;-59
2022/04/16 01:18:56;;;;;;;6.32;4.90;;;10.70;99.90;;;;;;5021465;28;20095;-59
2022/04/16 01:21:23;;;;;;;5.65;4.75;;;10.70;99.90;;;;;;5019621;28;20137;-59
2022/04/16 01:23:50;;;;;;;6.07;4.88;;;10.70;99.90;;;;;;5017666;28;20560;-58
2022/04/16 01:26:17;;;;;;;5.68;4.63;;;10.70;99.90;;;;;;5006865;28;20081;-58
2022/04/16 01:28:44;;;;;;;5.15;4.65;;;10.60;99.90;;;;;;5014720;28;20131;-59
2022/04/16 01:31:11;;;;;;;6.72;5.25;;;10.60;99.90;;;;;;5014276;28;20046;-59
2022/04/16 01:33:38;;;;;;;7.22;5.80;;;10.60;99.90;;;;;;5017159;28;20065;-58
2022/04/16 01:36:05;;;;;;;8.60;5.90;;;10.50;99.90;;;;;;5014472;28;20742;-63
2022/04/16 01:38:31;;;;;;;7.30;5.90;;;10.50;99.90;;;;;;5020695;28;20438;-58
2022/04/16 01:40:58;;;;;;;7.38;5.43;;;10.50;99.90;;;;;;5007470;28;20136;-58
2022/04/16 01:43:29;;;;;;;6.80;5.30;;;10.50;99.90;;;;;;5014457;28;20061;-58
2022/04/16 01:45:56;;;;;;;9.55;7.25;;;10.40;99.90;;;;;;5018166;28;20042;-59
2022/04/16 01:48:27;;;;;;;9.30;6.60;;;10.40;99.90;;;;;;5012575;28;20411;-58
2022/04/16 01:50:54;;;;;;;8.20;6.03;;;10.40;99.90;;;;;;5001515;28;20573;-58
2022/04/16 01:53:21;;;;;;;8.32;6.50;;;10.40;99.90;;;;;;5007475;28;20050;-58
2022/04/16 01:55:48;;;;;;;10.20;7.15;;;10.40;99.90;;;;;;5015394;28;20129;-58
2022/04/16 01:58:15;;;;;;;11.60;7.93;;;10.30;99.90;;;;;;5020952;28;20113;-58
2022/04/16 02:00:42;;;;;;;10.60;8.38;;;10.30;99.90;;;;;;5009939;28;20132;-59
2022/04/16 02:03:10;;;;;;;11.65;7.55;;;10.30;99.90;;;;;;5022207;28;20048;-58
2022/04/16 02:05:37;;;;;;;9.10;6.82;;;10.20;99.90;;;;;;5017934;28;20634;-59
2022/04/16 02:08:06;;;;;;;11.50;8.07;;;10.20;99.90;;;;;;5022030;28;20057;-59
2022/04/16 02:10:34;;;;;;;11.38;8.32;;;10.20;99.90;;;;;;5013250;28;20133;-59
2022/04/16 02:13:00;;;;;;;12.27;8.80;;;10.20;99.90;;;;;;5008295;28;20057;-59
2022/04/16 02:15:28;;;;;;;12.82;9.35;;;10.10;99.90;;;;;;5009882;28;20045;-59
2022/04/16 02:17:56;;;;;;;13.52;9.13;;;10.10;99.90;;;;;;5010904;28;20045;-59
2022/04/16 02:20:23;;;;;;;14.35;9.02;;;10.10;99.90;;;;;;5024233;28;20131;-59
2022/04/16 02:22:52;;;;;;;15.60;10.40;;;10.00;99.90;;;;;;5024695;28;20045;-59
2022/04/16 02:25:18;;;;;;;16.33;11.25;;;10.00;99.90;;;;;;5023315;28;20045;-58
2022/04/16 02:27:46;;;;;;;17.85;11.48;;;10.00;99.90;;;;;;5020203;28;20049;-59
2022/04/16 02:30:16;;;;;;;17.42;11.45;;;10.00;99.90;;;;;;5017986;28;20161;-60
2022/04/16 02:32:47;;;;;;;17.42;12.43;;;9.90;99.90;;;;;;5023401;28;20045;-59
2022/04/16 02:35:15;;;;;;;17.33;11.43;;;9.90;99.90;;;;;;5023994;28;20141;-59
2022/04/16 02:37:42;;;;;;;18.63;12.07;;;9.90;99.90;;;;;;5010454;28;20485;-59
2022/04/16 02:40:09;;;;;;;21.33;12.57;;;9.90;99.90;;;;;;5023950;28;20403;-59
2022/04/16 02:42:36;;;;;;;20.05;12.82;;;9.90;99.90;;;;;;5012783;28;20111;-59
2022/04/16 02:47:52;;;;;;;17.67;12.73;;;9.90;99.90;;;;;;5024228;28;20430;-59
2022/04/16 02:50:19;;;;;;;19.52;12.32;;;9.80;99.90;;;;;;5023854;28;20077;-59
2022/04/16 02:52:46;;;;;;;20.45;12.50;;;9.80;99.90;;;;;;5008138;28;20081;-59
2022/04/16 02:55:16;;;;;;;21.20;13.00;;;9.80;99.90;;;;;;5025255;28;20513;-59
2022/04/16 02:57:46;;;;;;;19.17;12.38;;;9.80;99.90;;;;;;5024589;28;20128;-59
2022/04/16 03:00:13;;;;;;;20.98;13.10;;;9.80;99.90;;;;;;5013744;28;20200;-58
2022/04/16 03:02:43;;;;;;;20.83;12.65;;;9.80;99.90;;;;;;5025542;28;20054;-59
2022/04/16 03:05:11;;;;;;;20.90;13.90;;;9.70;99.90;;;;;;5023989;28;20580;-61
2022/04/16 03:07:38;;;;;;;21.67;13.63;;;9.80;99.90;;;;;;5010549;28;20080;-61
2022/04/16 03:10:05;;;;;;;17.70;12.65;;;9.80;99.90;;;;;;5006044;28;20045;-60
2022/04/16 03:12:45;;;;;;;19.73;13.07;;;9.70;99.90;;;;;;5008206;28;20168;-60
2022/04/16 03:17:58;;;;;;;19.98;13.35;;;9.70;99.90;;;;;;5006635;28;20097;-61
2022/04/16 03:20:25;;;;;;;18.00;12.70;;;9.70;99.90;;;;;;5005226;28;20172;-60
2022/04/16 03:22:52;;;;;;;20.95;13.75;;;9.60;99.90;;;;;;5008322;28;20361;-60
2022/04/16 03:25:18;;;;;;;20.88;13.25;;;9.60;99.90;;;;;;5016680;28;20152;-60
2022/04/16 03:27:45;;;;;;;20.50;13.27;;;9.60;99.90;;;;;;5024647;28;20160;-60
2022/04/16 03:30:12;;;;;;;22.13;13.50;;;9.50;99.90;;;;;;5024901;28;20128;-60
2022/04/16 03:32:39;;;;;;;19.70;13.93;;;9.50;99.90;;;;;;5015479;28;20049;-60
2022/04/16 03:35:07;;;;;;;22.10;14.65;;;9.50;99.90;;;;;;5019150;28;20050;-60
2022/04/16 03:37:34;;;;;;;23.67;15.60;;;9.50;99.90;;;;;;5018205;28;20088;-59
2022/04/16 03:40:02;;;;;;;21.90;14.38;;;9.50;99.90;;;;;;5024656;28;20089;-60
2022/04/16 03:42:31;;;;;;;23.08;14.75;;;9.50;99.90;;;;;;5025178;28;20077;-59
2022/04/16 03:45:00;;;;;;;21.20;14.68;;;9.40;99.90;;;;;;5024515;28;20137;-60
2022/04/16 03:47:27;;;;;;;23.27;14.93;;;9.40;99.90;;;;;;5020071;28;20073;-60
2022/04/16 03:49:57;;;;;;;24.35;15.45;;;9.40;99.90;;;;;;5005216;28;20088;-59
2022/04/16 03:52:23;;;;;;;22.40;15.05;;;9.40;99.90;;;;;;5022178;28;20557;-59
2022/04/16 04:00:21;;;;;;;23.33;14.90;;;9.40;99.90;;;;;;5005174;28;20077;-60
2022/04/16 04:02:47;;;;;;;24.15;15.65;;;9.40;99.90;;;;;;5008463;28;20172;-60
2022/04/16 04:05:14;;;;;;;21.33;14.93;;;9.40;99.90;;;;;;5024817;28;20045;-59
2022/04/16 04:07:41;;;;;;;22.83;15.73;;;9.40;99.90;;;;;;5023311;28;20186;-59
2022/04/16 04:10:10;;;;;;;24.45;15.27;;;9.40;99.90;;;;;;5022035;28;20268;-59
2022/04/16 04:12:37;;;;;;;22.73;15.35;;;9.40;99.90;;;;;;5008824;28;20223;-59
2022/04/16 04:15:04;;;;;;;24.05;15.68;;;9.40;99.90;;;;;;5020929;28;20336;-59
2022/04/16 04:17:31;;;;;;;24.85;16.75;;;9.30;99.90;;;;;;5002816;28;20121;-59
2022/04/16 04:19:57;;;;;;;24.13;16.27;;;9.30;99.90;;;;;;5004108;28;20534;-59
2022/04/16 04:22:24;;;;;;;23.95;15.65;;;9.30;99.90;;;;;;5021301;28;20057;-59
2022/04/16 04:24:52;;;;;;;25.75;16.63;;;9.30;99.90;;;;;;5023737;28;20055;-59
2022/04/16 04:27:19;;;;;;;26.40;17.02;;;9.30;99.90;;;;;;5010951;28;20085;-60
2022/04/16 04:29:45;;;;;;;24.45;17.25;;;9.20;99.90;;;;;;5004730;28;20100;-59
2022/04/16 04:32:12;;;;;;;25.80;17.65;;;9.20;99.90;;;;;;5002705;28;20088;-60
2022/04/16 04:34:39;;;;;;;22.83;16.30;;;9.20;99.90;;;;;;5021480;28;20070;-59
2022/04/16 04:37:06;;;;;;;22.48;15.15;;;9.20;99.90;;;;;;5010940;28;20089;-59
2022/04/16 04:39:33;;;;;;;26.38;17.13;;;9.10;99.90;;;;;;5005868;28;21199;-60
2022/04/16 04:41:59;;;;;;;26.40;18.13;;;9.20;99.90;;;;;;5023835;28;20140;-60
2022/04/16 04:44:26;;;;;;;25.45;17.42;;;9.20;99.90;;;;;;5022557;28;20500;-60
2022/04/16 04:46:53;;;;;;;25.67;18.08;;;9.20;99.90;;;;;;5020938;28;20081;-59
2022/04/16 04:49:20;;;;;;;25.27;17.52;;;9.10;99.90;;;;;;5023447;28;20057;-59
2022/04/16 04:51:46;;;;;;;26.17;17.20;;;9.10;99.90;;;;;;5021125;28;20037;-60
2022/04/16 04:54:13;;;;;;;25.85;17.73;;;9.10;99.90;;;;;;5020088;28;20496;-59
2022/04/16 04:56:40;;;;;;;25.27;17.02;;;9.10;99.90;;;;;;5005699;28;20559;-60
2022/04/16 04:59:07;;;;;;;24.75;17.98;;;9.10;99.90;;;;;;5002659;28;20113;-59
2022/04/16 05:01:33;;;;;;;26.30;17.23;;;9.10;99.90;;;;;;5012742;28;20453;-60
2022/04/16 05:04:00;;;;;;;25.25;16.95;;;9.10;99.90;;;;;;5015336;28;20450;-60
2022/04/16 05:06:27;;;;;;;27.27;17.65;;;9.10;99.90;;;;;;5005508;28;20128;-60
2022/04/16 05:08:54;;;;;;;26.60;17.90;;;9.10;99.90;;;;;;5000623;28;20109;-59
2022/04/16 05:11:21;;;;;;;27.13;18.35;;;9.10;99.90;;;;;;5020996;28;20140;-60
2022/04/16 05:13:47;;;;;;;25.83;17.02;;;9.10;99.90;;;;;;5021642;28;20107;-60
2022/04/16 05:16:14;;;;;;;24.95;17.50;;;9.10;99.90;;;;;;5016202;28;20527;-60
2022/04/16 05:18:41;;;;;;;25.77;17.05;;;9.00;99.90;;;;;;4999542;28;20060;-60
2022/04/16 05:21:08;;;;;;;24.73;16.88;;;9.10;99.90;;;;;;5000763;28;20085;-60
2022/04/16 05:23:39;;;;;;;29.23;19.15;;;9.00;99.90;;;;;;5015307;28;20449;-58
2022/04/16 05:26:10;;;;;;;25.10;17.08;;;9.10;99.90;;;;;;5006930;28;20049;-58
2022/04/16 05:28:37;;;;;;;25.95;17.45;;;9.10;99.90;;;;;;5007401;28;20136;-59
2022/04/16 05:31:04;;;;;;;24.55;16.83;;;9.00;99.90;;;;;;5021064;28;20163;-59
2022/04/16 05:36:16;;;;;;;23.13;17.00;;;9.00;99.90;;;;;;5019274;28;20137;-58
2022/04/16 05:38:44;;;;;;;25.02;16.98;;;9.10;99.90;;;;;;5012967;28;20158;-58
2022/04/16 05:41:11;;;;;;;25.90;17.27;;;9.10;99.90;;;;;;5011665;28;20084;-58
2022/04/16 05:43:37;;;;;;;21.98;15.63;;;9.10;99.90;;;;;;5020794;28;20122;-58
2022/04/16 05:46:04;;;;;;;25.33;17.48;;;9.10;99.90;;;;;;5020072;28;20061;-58
2022/04/16 05:48:31;;;;;;;25.35;17.90;;;9.10;99.90;;;;;;5010246;28;20053;-58
2022/04/16 05:50:58;;;;;;;25.00;16.65;;;9.10;99.90;;;;;;5019374;28;20076;-58
2022/04/16 05:53:25;;;;;;;23.40;16.95;;;9.20;99.90;;;;;;5019840;28;20993;-58
2022/04/16 05:55:51;;;;;;;24.20;18.48;;;9.20;99.90;;;;;;5012263;28;20549;-58
2022/04/16 05:58:18;;;;;;;22.95;17.20;;;9.20;99.90;;;;;;5019652;28;20092;-58
2022/04/16 06:00:45;;;;;;;24.10;18.25;;;9.30;99.90;;;;;;4988350;28;20070;-59
2022/04/16 06:03:17;;;;;;;24.42;17.00;;;9.30;99.90;;;;;;5010459;28;20232;-58
2022/04/16 06:05:44;;;;;;;22.85;16.52;;;9.40;99.90;;;;;;5020152;28;20087;-58
2022/04/16 06:08:11;;;;;;;24.67;18.33;;;9.40;99.90;;;;;;5020926;28;20084;-58
2022/04/16 06:10:37;;;;;;;25.17;19.00;;;9.40;99.90;;;;;;5011054;28;20700;-58
2022/04/16 06:13:09;;;;;;;23.63;18.50;;;9.50;99.90;;;;;;5005511;28;20514;-58
2022/04/16 06:15:41;;;;;;;23.65;17.70;;;9.40;99.90;;;;;;5012481;28;20084;-59
2022/04/16 06:18:08;;;;;;;24.60;18.50;;;9.50;99.90;;;;;;5016168;28;20073;-58
2022/04/16 06:20:36;;;;;;;21.38;16.30;;;9.50;99.90;;;;;;5018512;28;20084;-58
2022/04/16 06:23:03;;;;;;;22.10;17.52;;;9.60;99.90;;;;;;5016341;28;20119;-59
2022/04/16 06:25:30;;;;;;;26.65;20.42;;;9.70;99.90;;;;;;5002574;28;20144;-58
2022/04/16 06:27:56;;;;;;;23.90;17.95;;;9.70;99.90;;;;;;5000983;28;20168;-58
2022/04/16 06:30:23;;;;;;;22.70;17.88;;;9.80;99.90;;;;;;4999910;28;20573;-58
2022/04/16 06:32:50;;;;;;;24.02;17.77;;;9.80;99.90;;;;;;5006442;28;20445;-58
2022/04/16 06:35:17;;;;;;;22.67;17.40;;;9.80;99.90;;;;;;5017608;28;20225;-58
2022/04/16 06:37:43;;;;;;;23.50;17.60;;;9.90;99.90;;;;;;5010909;28;20421;-58
2022/04/16 06:40:10;;;;;;;26.10;19.33;;;9.90;99.90;;;;;;5017914;28;20053;-59
2022/04/16 06:42:38;;;;;;;23.85;19.63;;;10.00;99.90;;;;;;5001491;28;20084;-59
2022/04/16 06:45:05;;;;;;;22.50;18.67;;;10.00;99.90;;;;;;5010234;28;20049;-58
2022/04/16 06:47:32;;;;;;;24.02;20.15;;;10.10;99.90;;;;;;5012507;28;20148;-58
2022/04/16 06:49:59;;;;;;;26.38;20.88;;;10.20;99.90;;;;;;5001196;28;20076;-58
2022/04/16 06:52:26;;;;;;;24.70;20.35;;;10.30;99.90;;;;;;5014075;28;20409;-59
2022/04/16 06:54:52;;;;;;;24.02;21.13;;;10.40;99.90;;;;;;5006967;28;20136;-58
2022/04/16 06:57:20;;;;;;;24.90;20.33;;;10.50;99.90;;;;;;5018551;28;20925;-58
2022/04/16 06:59:46;;;;;;;26.55;20.90;;;10.60;99.90;;;;;;5012593;28;20119;-58
2022/04/16 07:02:13;;;;;;;25.67;21.75;;;10.70;99.90;;;;;;5010769;28;20124;-58
2022/04/16 07:04:41;;;;;;;26.35;21.83;;;10.90;99.90;;;;;;5011379;28;20060;-59
2022/04/16 07:07:08;;;;;;;25.33;21.90;;;10.90;99.90;;;;;;5016674;28;20133;-59
2022/04/16 07:09:38;;;;;;;25.10;21.00;;;11.00;99.90;;;;;;5023967;28;20140;-59
2022/04/16 07:12:09;;;;;;;27.45;23.27;;;11.20;99.90;;;;;;5017433;28;20049;-64
2022/04/16 07:14:39;;;;;;;27.17;22.10;;;11.20;99.90;;;;;;5012058;28;20049;-61
2022/04/16 07:17:06;;;;;;;28.98;23.85;;;11.30;99.90;;;;;;5029056;28;20050;-60
2022/04/16 07:19:33;;;;;;;32.25;26.45;;;11.30;99.90;;;;;;5031642;28;20140;-60
2022/04/16 07:22:00;;;;;;;32.13;26.42;;;11.30;99.90;;;;;;5036186;28;20132;-60
2022/04/16 07:24:27;;;;;;;28.95;23.88;;;11.40;99.90;;;;;;5029031;28;20481;-60
2022/04/16 07:26:54;;;;;;;28.38;24.05;;;11.50;99.90;;;;;;5023574;28;20561;-60
2022/04/16 07:29:21;;;;;;;30.73;26.60;;;11.50;99.90;;;;;;5023847;28;20152;-60
2022/04/16 07:31:48;;;;;;;28.88;23.70;;;11.50;99.90;;;;;;5013915;28;20163;-60
2022/04/16 07:34:15;;;;;;;26.75;23.42;;;11.50;99.90;;;;;;5015774;28;20387;-60
2022/04/16 07:36:42;;;;;;;27.92;23.17;;;11.60;99.90;;;;;;5019629;28;20151;-61
2022/04/16 07:39:10;;;;;;;27.00;23.35;;;11.80;99.90;;;;;;5017936;28;20144;-60
2022/04/16 07:41:37;;;;;;;29.23;24.30;;;11.80;99.90;;;;;;5019846;28;20624;-60
2022/04/16 07:44:04;;;;;;;32.33;26.77;;;11.80;99.90;;;;;;5017349;28;20136;-61
2022/04/16 07:46:31;;;;;;;32.58;25.85;;;11.80;99.90;;;;;;5018661;28;20143;-60
2022/04/16 07:48:58;;;;;;;28.85;23.77;;;11.80;99.90;;;;;;5018595;28;20041;-60
2022/04/16 07:51:25;;;;;;;31.58;26.60;;;11.90;99.90;;;;;;5009272;28;20300;-60
2022/04/16 07:53:53;;;;;;;28.50;24.80;;;11.80;99.90;;;;;;5008713;28;20140;-60
2022/04/16 07:56:20;;;;;;;30.40;27.10;;;11.80;99.90;;;;;;5007937;28;20046;-60
2022/04/16 07:58:47;;;;;;;29.80;25.73;;;11.90;99.90;;;;;;5010186;28;20220;-60
2022/04/16 08:01:14;;;;;;;28.38;25.27;;;11.90;99.90;;;;;;5006608;28;20547;-60
2022/04/16 08:03:41;;;;;;;29.10;25.85;;;11.90;99.90;;;;;;5012633;28;20053;-60
2022/04/16 08:06:07;;;;;;;31.95;26.38;;;11.90;99.90;;;;;;5017655;28;20073;-60
2022/04/16 08:08:34;;;;;;;27.88;24.25;;;11.80;99.90;;;;;;5010342;28;20095;-63
2022/04/16 08:11:01;;;;;;;27.73;24.08;;;11.90;99.90;;;;;;5023846;28;20084;-60
2022/04/16 08:13:28;;;;;;;29.10;24.67;;;11.90;99.90;;;;;;5010148;28;20049;-60
2022/04/16 08:15:55;;;;;;;27.30;24.13;;;12.00;99.90;;;;;;5015958;28;20049;-60
2022/04/16 08:18:22;;;;;;;28.88;25.65;;;12.00;99.90;;;;;;5015818;28;20124;-59
2022/04/16 08:20:48;;;;;;;29.42;25.27;;;12.00;99.90;;;;;;5002869;28;20339;-61
2022/04/16 08:23:15;;;;;;;27.40;24.20;;;12.10;99.90;;;;;;5013424;28;20160;-60
2022/04/16 08:28:09;;;;;;;29.20;26.00;;;12.10;99.90;;;;;;5015880;28;20135;-59
2022/04/16 08:30:36;;;;;;;26.92;24.15;;;12.10;99.90;;;;;;5016613;28;20112;-59
2022/04/16 08:33:02;;;;;;;26.25;23.42;;;12.20;99.90;;;;;;5016144;28;20071;-59
2022/04/16 08:35:29;;;;;;;26.60;23.73;;;12.20;99.90;;;;;;5018070;28;20071;-59
2022/04/16 08:37:56;;;;;;;26.90;23.85;;;12.30;99.90;;;;;;5016240;28;20627;-59
2022/04/16 08:40:23;;;;;;;26.50;23.67;;;12.40;99.90;;;;;;4997809;28;20081;-59
2022/04/16 08:42:49;;;;;;;26.55;23.75;;;12.40;99.90;;;;;;5003648;28;20510;-60
2022/04/16 08:45:16;;;;;;;27.98;24.92;;;12.50;99.90;;;;;;5017755;28;20089;-60
2022/04/16 08:47:44;;;;;;;27.67;24.65;;;12.50;99.90;;;;;;5016852;28;20347;-60
2022/04/16 08:50:12;;;;;;;30.25;27.02;;;12.50;99.90;;;;;;5000329;28;20049;-59
2022/04/16 08:52:39;;;;;;;30.30;27.23;;;12.60;99.90;;;;;;5008780;28;20165;-60
2022/04/16 08:55:10;;;;;;;31.00;27.90;;;12.60;99.90;;;;;;5017985;28;20088;-59
2022/04/16 08:57:38;;;;;;;28.52;25.67;;;12.70;99.90;;;;;;5017115;28;20140;-62
2022/04/16 09:00:06;;;;;;;27.58;24.83;;;12.80;99.90;;;;;;5003924;28;20133;-61
2022/04/16 09:02:33;;;;;;;27.33;24.50;;;12.80;99.90;;;;;;5017223;28;20135;-59
2022/04/16 09:05:05;;;;;;;25.20;22.67;;;12.90;99.90;;;;;;5001093;28;20104;-59
2022/04/16 09:07:32;;;;;;;25.67;23.08;;;13.00;99.90;;;;;;5010005;28;20141;-60
2022/04/16 09:10:06;;;;;;;26.77;24.00;;;13.10;99.90;;;;;;5008776;28;20084;-59
2022/04/16 09:12:36;;;;;;;25.42;22.88;;;13.10;99.90;;;;;;5004061;28;20556;-60
2022/04/16 09:15:10;;;;;;;28.23;25.42;;;13.20;99.90;;;;;;5017921;28;20084;-61
2022/04/16 09:17:38;;;;;;;26.40;23.88;;;13.30;99.90;;;;;;5013640;28;20449;-60
2022/04/16 09:20:10;;;;;;;28.65;25.55;;;13.40;99.90;;;;;;5004506;28;20053;-59
2022/04/16 09:22:40;;;;;;;29.17;26.23;;;13.40;99.90;;;;;;5004360;28;20046;-60
2022/04/16 09:25:16;;;;;;;29.08;26.25;;;13.40;99.90;;;;;;5010292;28;20064;-59
2022/04/16 09:27:46;;;;;;;25.90;23.38;;;13.50;99.90;;;;;;4995611;28;20154;-60
2022/04/16 09:30:20;;;;;;;24.65;22.13;;;13.60;99.90;;;;;;4997449;28;20689;-60
2022/04/16 09:32:47;;;;;;;23.38;21.13;;;13.70;99.90;;;;;;4998286;28;20104;-60
2022/04/16 09:35:27;;;;;;;24.00;21.58;;;13.80;99.90;;;;;;5007436;28;20565;-60
2022/04/16 09:38:12;;;;;;;24.63;22.23;;;13.80;99.90;;;;;;5008735;28;20069;-60
2022/04/16 09:40:39;;;;;;;23.13;20.88;;;13.90;99.90;;;;;;5013060;28;20484;-60
2022/04/16 09:43:06;;;;;;;22.02;19.92;;;14.00;99.90;;;;;;5005680;28;20061;-60
2022/04/16 09:45:33;;;;;;;23.73;21.45;;;14.10;99.90;;;;;;5009233;28;20138;-60
2022/04/16 09:48:00;;;;;;;23.48;21.27;;;14.20;99.90;;;;;;5005617;28;20156;-60
2022/04/16 09:50:29;;;;;;;21.90;19.80;;;14.20;99.90;;;;;;5006272;28;20516;-60
2022/04/16 09:52:57;;;;;;;21.20;19.13;;;14.30;99.90;;;;;;5008902;28;20101;-60
2022/04/16 09:55:27;;;;;;;20.30;18.40;;;14.40;99.90;;;;;;5004448;28;20777;-59
2022/04/16 09:58:04;;;;;;;24.48;22.00;;;14.50;99.90;;;;;;5004825;28;20172;-60
2022/04/16 10:00:35;;;;;;;21.83;19.60;;;14.60;99.90;;;;;;5012523;28;20168;-59
2022/04/16 10:03:22;;;;;;;20.83;18.85;;;14.60;99.90;;;;;;5008234;28;20156;-59
2022/04/16 10:05:48;;;;;;;19.77;17.92;;;14.70;99.90;;;;;;5005091;28;20095;-60
2022/04/16 10:08:16;;;;;;;18.92;17.13;;;14.80;99.90;;;;;;4996555;28;20111;-60
2022/04/16 10:10:52;;;;;;;18.55;16.75;;;14.90;99.90;;;;;;5014494;28;20085;-60
2022/04/16 10:13:19;;;;;;;20.30;18.40;;;15.00;99.90;;;;;;5012564;28;20568;-59
2022/04/16 10:15:59;;;;;;;20.50;17.77;;;15.00;99.90;;;;;;5003810;28;20504;-62
2022/04/16 10:18:26;;;;;;;20.10;18.17;;;15.10;99.90;;;;;;5003286;28;20053;-59
2022/04/16 10:20:57;;;;;;;18.17;16.48;;;15.10;99.90;;;;;;5015209;28;20144;-58
2022/04/16 10:23:47;;;;;;;18.77;17.05;;;15.30;99.90;;;;;;5006267;28;20085;-60
2022/04/16 10:26:15;;;;;;;17.42;15.82;;;15.40;99.90;;;;;;5007830;28;20104;-60
2022/04/16 10:28:54;;;;;;;18.33;16.63;;;15.40;99.90;;;;;;5001422;28;20189;-59
2022/04/16 10:31:32;;;;;;;15.82;14.32;;;15.50;99.90;;;;;;5008202;28;20053;-59
2022/04/16 10:34:05;;;;;;;15.50;14.00;;;15.60;99.90;;;;;;5006033;28;20058;-59
2022/04/16 10:36:47;;;;;;;15.80;14.35;;;15.60;99.90;;;;;;5006752;28;20150;-59
2022/04/16 10:39:15;;;;;;;14.50;13.10;;;15.70;99.90;;;;;;5003406;28;20085;-60
2022/04/16 10:41:53;;;;;;;13.23;12.02;;;15.80;99.90;;;;;;5014200;28;20144;-60
2022/04/16 10:44:20;;;;;;;13.68;12.48;;;15.90;99.90;;;;;;5006498;28;20061;-60
2022/04/16 10:46:48;;;;;;;13.18;11.98;;;16.00;99.90;;;;;;5017626;28;20103;-60
2022/04/16 10:49:16;;;;;;;14.75;13.40;;;16.10;99.90;;;;;;5011298;28;20382;-59
2022/04/16 10:51:43;;;;;;;13.20;11.77;;;16.10;99.90;;;;;;5007873;28;20038;-59
2022/04/16 10:54:34;;;;;;;11.95;10.90;;;16.20;99.90;;;;;;5014120;28;20160;-59
2022/04/16 10:57:01;;;;;;;12.82;11.63;;;16.30;99.90;;;;;;5019958;28;20068;-59
2022/04/16 10:59:40;;;;;;;12.23;11.18;;;16.40;99.90;;;;;;5007291;28;20440;-59
2022/04/16 11:02:37;;;;;;;11.57;10.43;;;16.40;99.90;;;;;;4997974;28;20137;-59
2022/04/16 11:05:05;;;;;;;11.98;10.85;;;16.40;99.90;;;;;;5011292;28;20092;-59
2022/04/16 11:07:35;;;;;;;11.43;10.35;;;16.40;99.90;;;;;;5024183;28;20045;-59
2022/04/16 11:10:09;;;;;;;10.15;9.18;;;16.60;99.90;;;;;;5008851;28;20053;-59
2022/04/16 11:12:44;;;;;;;10.48;9.55;;;16.70;99.90;;;;;;5012798;28;20429;-58
2022/04/16 11:15:15;;;;;;;10.35;9.32;;;16.80;99.90;;;;;;5003658;28;20054;-60
2022/04/16 11:17:42;;;;;;;9.40;8.43;;;16.80;99.90;;;;;;5001440;28;20181;-61
2022/04/16 11:20:09;;;;;;;9.52;8.63;;;16.90;99.90;;;;;;5005859;28;20144;-61
2022/04/16 11:22:37;;;;;;;9.93;9.02;;;17.10;99.90;;;;;;5007819;28;20132;-61
2022/04/16 11:25:08;;;;;;;9.85;8.85;;;17.30;99.90;;;;;;5007721;28;20101;-61
2022/04/16 11:35:59;;;;;;;8.48;7.68;;;18.00;99.90;;;;;;5020123;28;20100;-61
2022/04/16 11:38:33;;;;;;;9.15;8.25;;;18.40;99.90;;;;;;5020116;28;20245;-60
2022/04/16 11:41:01;;;;;;;8.35;7.55;;;18.60;99.90;;;;;;5002654;28;20136;-60
2022/04/16 11:43:28;;;;;;;8.38;7.57;;;18.90;99.90;;;;;;5019830;28;20131;-63
2022/04/16 11:45:55;;;;;;;8.77;7.97;;;19.00;99.90;;;;;;5018545;28;20099;-60
2022/04/16 11:48:22;;;;;;;8.25;7.55;;;19.20;99.90;;;;;;5019867;28;20551;-60
2022/04/16 11:50:49;;;;;;;9.30;8.40;;;19.40;99.90;;;;;;5019982;28;20561;-60
2022/04/16 11:53:16;;;;;;;9.50;8.52;;;19.60;99.90;;;;;;5016317;28;20069;-60
2022/04/16 11:55:51;;;;;;;9.98;9.07;;;19.80;99.90;;;;;;5007801;28;20417;-60
2022/04/16 11:58:18;;;;;;;8.27;7.47;;;20.00;99.90;;;;;;5004464;28;20124;-60
2022/04/16 12:00:54;;;;;;;9.43;8.60;;;20.30;99.90;;;;;;5001783;28;20231;-61
2022/04/16 12:03:21;;;;;;;8.40;7.60;;;20.50;99.90;;;;;;5010547;28;20133;-60
2022/04/16 12:05:48;;;;;;;8.38;7.57;;;20.80;99.90;;;;;;5015392;28;20156;-61
2022/04/16 12:08:16;;;;;;;8.88;8.07;;;21.10;99.90;;;;;;5023945;28;20084;-60
2022/04/16 12:10:46;;;;;;;9.40;8.60;;;21.20;99.90;;;;;;5017962;28;20437;-61
2022/04/16 12:13:13;;;;;;;8.38;7.68;;;21.30;99.90;;;;;;5009441;28;20116;-60
2022/04/16 12:15:41;;;;;;;8.02;7.32;;;21.60;99.70;;;;;;5006287;28;20050;-60
2022/04/16 12:18:15;;;;;;;9.20;8.32;;;21.70;99.60;;;;;;5005758;28;20081;-60
2022/04/16 12:20:43;;;;;;;8.15;7.45;;;21.70;99.60;;;;;;5001067;28;20049;-61
2022/04/16 12:23:14;;;;;;;7.32;6.72;;;21.80;98.50;;;;;;5002592;28;20403;-60
2022/04/16 12:25:43;;;;;;;7.80;7.10;;;22.20;99.30;;;;;;5020303;28;20081;-61
2022/04/16 12:28:11;;;;;;;7.53;6.82;;;22.50;98.60;;;;;;5017959;28;20668;-61
2022/04/16 12:30:38;;;;;;;7.82;7.13;;;22.80;97.70;;;;;;5011163;28;20131;-61
2022/04/16 12:33:11;;;;;;;7.40;6.80;;;22.90;97.50;;;;;;5002747;28;20132;-61
2022/04/16 12:35:47;;;;;;;5.95;5.45;;;22.90;96.30;;;;;;5016331;28;20056;-61
2022/04/16 12:38:17;;;;;;;7.43;6.68;;;23.00;96.40;;;;;;5012078;28;20062;-61
2022/04/16 12:40:44;;;;;;;6.68;6.07;;;23.10;96.60;;;;;;5009733;28;20160;-61
2022/04/16 12:43:11;;;;;;;6.55;5.95;;;23.30;95.90;;;;;;5018755;28;20124;-61
2022/04/16 12:45:38;;;;;;;7.32;6.63;;;23.50;95.50;;;;;;5006086;28;20091;-61
2022/04/16 12:48:06;;;;;;;6.20;5.70;;;23.60;94.80;;;;;;5006520;28;20050;-61
2022/04/16 12:50:33;;;;;;;5.70;5.20;;;23.70;95.00;;;;;;5003586;28;20081;-60
2022/04/16 12:53:00;;;;;;;5.78;5.18;;;23.80;94.80;;;;;;5007037;28;20513;-60
2022/04/16 12:55:33;;;;;;;5.45;5.00;;;24.20;94.90;;;;;;5015351;28;20153;-60
2022/04/16 12:58:00;;;;;;;5.65;5.20;;;24.40;93.50;;;;;;5000913;28;20784;-60
2022/04/16 13:00:27;;;;;;;6.18;5.22;;;24.50;93.50;;;;;;5007258;28;20375;-59
2022/04/16 13:02:59;;;;;;;5.95;5.45;;;24.50;92.70;;;;;;5005832;28;20519;-60
2022/04/16 13:05:29;;;;;;;5.18;4.68;;;24.50;92.70;;;;;;4999295;28;20497;-59